createdAt,value
2022-10-21T00:00:37.632Z,71.33
2022-10-21T00:03:07.476Z,71.85
2022-10-21T00:05:37.090Z,71.55
2022-10-21T00:08:06.769Z,72.82
2022-10-21T00:13:09.096Z,71.77
2022-10-21T00:15:39.270Z,72.03
2022-10-21T00:18:08.881Z,72.32
2022-10-21T00:20:41.096Z,71.78
2022-10-21T00:23:10.766Z,71.47
2022-10-21T00:25:40.638Z,71.98
2022-10-21T00:28:11.602Z,71.54
2022-10-21T00:30:43.684Z,71.97
2022-10-21T00:33:13.293Z,71.84
2022-10-21T00:35:42.988Z,72.15
2022-10-21T00:38:12.952Z,72.26
2022-10-21T00:40:42.486Z,71.59
2022-10-21T00:43:14.055Z,70.60
2022-10-21T00:45:44.957Z,70.38
2022-10-21T00:48:20.037Z,69.99
2022-10-21T00:50:52.027Z,69.38
2022-10-21T00:53:22.031Z,69.37
2022-10-21T00:55:53.576Z,69.13
2022-10-21T00:58:26.357Z,69.23
2022-10-21T01:00:57.321Z,69.99
2022-10-21T01:03:27.820Z,70.43
2022-10-21T01:05:59.024Z,70.14
2022-10-21T01:08:29.023Z,69.36
2022-10-21T01:10:59.547Z,69.41
2022-10-21T01:13:35.202Z,69.14
2022-10-21T01:16:10.116Z,69.74
2022-10-21T01:18:43.214Z,69.34
2022-10-21T01:21:21.263Z,69.38
2022-10-21T01:24:01.134Z,69.38
2022-10-21T01:26:48.647Z,69.51
2022-10-21T01:29:29.942Z,69.38
2022-10-21T01:32:08.018Z,69.32
2022-10-21T01:34:40.917Z,68.95
2022-10-21T01:37:15.597Z,69.63
2022-10-21T01:39:47.485Z,70.16
2022-10-21T01:42:19.335Z,69.71
2022-10-21T01:44:52.186Z,70.54
2022-10-21T01:47:24.251Z,69.42
2022-10-21T01:49:55.705Z,69.62
2022-10-21T01:52:25.761Z,69.76
2022-10-21T01:54:57.349Z,70.87
2022-10-21T01:57:29.433Z,71.25
2022-10-21T02:00:01.052Z,71.73
2022-10-21T02:02:34.655Z,71.70
2022-10-21T02:05:07.023Z,71.04
2022-10-21T02:07:36.665Z,71.45
2022-10-21T02:10:06.722Z,70.75
2022-10-21T02:12:38.425Z,70.94
2022-10-21T02:15:10.070Z,70.72
2022-10-21T02:17:43.665Z,70.78
2022-10-21T02:20:14.370Z,70.79
2022-10-21T02:22:46.007Z,72.10
2022-10-21T02:25:18.123Z,72.29
2022-10-21T02:27:47.987Z,72.25
2022-10-21T02:30:17.543Z,71.52
2022-10-21T02:32:53.620Z,71.62
2022-10-21T02:35:30.057Z,71.30
2022-10-21T02:38:02.685Z,71.00
2022-10-21T02:40:35.943Z,71.97
2022-10-21T02:43:07.683Z,72.51
2022-10-21T02:45:39.774Z,71.54
2022-10-21T02:48:10.877Z,71.38
2022-10-21T02:50:40.669Z,71.78
2022-10-21T02:53:11.797Z,71.36
2022-10-21T02:55:41.445Z,71.78
2022-10-21T02:58:11.469Z,71.60
2022-10-21T03:00:41.121Z,71.76
2022-10-21T03:03:12.095Z,72.57
2022-10-21T03:05:41.941Z,71.40
2022-10-21T03:08:11.529Z,71.65
2022-10-21T03:10:41.089Z,71.84
2022-10-21T03:13:11.300Z,71.49
2022-10-21T03:15:41.310Z,71.09
2022-10-21T03:18:12.326Z,71.31
2022-10-21T03:20:41.935Z,70.92
2022-10-21T03:23:11.803Z,71.06
2022-10-21T03:25:41.421Z,71.78
2022-10-21T03:28:11.110Z,71.63
2022-10-21T03:30:40.780Z,71.50
2022-10-21T03:33:10.337Z,71.25
2022-10-21T03:35:41.327Z,71.29
2022-10-21T03:38:10.990Z,71.27
2022-10-21T03:40:40.736Z,71.78
2022-10-21T03:43:10.305Z,71.56
2022-10-21T03:45:40.152Z,71.94
2022-10-21T03:48:09.724Z,71.74
2022-10-21T03:50:41.128Z,72.32
2022-10-21T03:53:24.469Z,72.23
2022-10-21T03:56:00.414Z,71.74
2022-10-21T03:58:30.007Z,72.27
2022-10-21T04:00:59.547Z,71.81
2022-10-21T04:03:29.141Z,71.94
2022-10-21T04:06:00.223Z,72.31
2022-10-21T04:08:29.860Z,71.91
2022-10-21T04:10:59.889Z,72.36
2022-10-21T04:13:31.298Z,72.38
2022-10-21T04:16:02.914Z,71.62
2022-10-21T04:18:32.794Z,71.94
2022-10-21T04:21:03.895Z,71.92
2022-10-21T04:23:33.810Z,72.55
2022-10-21T04:26:03.934Z,72.83
2022-10-21T04:28:33.764Z,72.63
2022-10-21T04:31:03.427Z,72.33
2022-10-21T04:33:33.047Z,72.80
2022-10-21T04:36:03.965Z,72.19
2022-10-21T04:38:33.577Z,72.64
2022-10-21T04:41:04.270Z,73.28
2022-10-21T04:43:33.935Z,72.30
2022-10-21T04:46:07.546Z,72.48
2022-10-21T04:48:39.653Z,73.06
2022-10-21T04:51:10.804Z,72.80
2022-10-21T04:53:40.387Z,73.01
2022-10-21T04:56:10.136Z,72.76
2022-10-21T04:58:39.654Z,73.40
2022-10-21T05:01:09.216Z,73.09
2022-10-21T05:03:38.900Z,73.08
2022-10-21T05:06:08.507Z,73.09
2022-10-21T05:08:39.466Z,72.67
2022-10-21T05:11:09.159Z,72.78
2022-10-21T05:13:39.361Z,74.09
2022-10-21T05:16:09.375Z,72.83
2022-10-21T05:18:39.074Z,73.50
2022-10-21T05:21:08.741Z,72.75
2022-10-21T05:23:40.001Z,73.22
2022-10-21T05:26:09.966Z,73.22
2022-10-21T05:28:39.503Z,72.07
2022-10-21T05:31:09.078Z,71.76
2022-10-21T05:33:38.639Z,72.05
2022-10-21T05:36:08.942Z,71.56
2022-10-21T05:38:39.968Z,70.84
2022-10-21T05:41:10.958Z,70.75
2022-10-21T05:43:40.555Z,71.37
2022-10-21T05:46:10.182Z,70.75
2022-10-21T05:48:39.843Z,71.44
2022-10-21T05:51:09.567Z,71.33
2022-10-21T05:53:40.918Z,70.80
2022-10-21T05:56:10.526Z,71.10
2022-10-21T05:58:40.153Z,71.66
2022-10-21T06:01:10.001Z,71.78
2022-10-21T06:03:37.791Z,72.06
2022-10-21T06:06:08.257Z,71.64
2022-10-21T06:08:39.122Z,73.04
2022-10-21T06:11:09.988Z,71.34
2022-10-21T06:13:39.691Z,71.35
2022-10-21T06:16:09.088Z,72.17
2022-10-21T06:18:38.044Z,72.03
2022-10-21T06:21:06.735Z,71.99
2022-10-21T06:23:35.407Z,71.35
2022-10-21T06:26:05.345Z,71.21
2022-10-21T06:28:36.659Z,72.02
2022-10-21T06:31:05.753Z,71.66
2022-10-21T06:33:34.441Z,71.30
2022-10-21T06:36:03.406Z,71.45
2022-10-21T06:38:33.704Z,71.53
2022-10-21T06:41:02.690Z,70.88
2022-10-21T06:43:31.463Z,70.79
2022-10-21T06:46:02.347Z,71.53
2022-10-21T06:48:31.123Z,71.68
2022-10-21T06:51:00.348Z,72.24
2022-10-21T06:53:28.995Z,72.00
2022-10-21T06:56:04.707Z,71.56
2022-10-21T06:58:33.254Z,72.02
2022-10-21T07:01:16.647Z,71.65
2022-10-21T07:03:56.929Z,71.81
2022-10-21T07:06:29.129Z,71.75
2022-10-21T07:08:59.678Z,70.92
2022-10-21T07:11:29.722Z,71.18
2022-10-21T07:14:00.857Z,71.14
2022-10-21T07:16:33.322Z,70.82
2022-10-21T07:19:02.983Z,71.09
2022-10-21T07:21:33.469Z,70.85
2022-10-21T07:24:03.054Z,70.60
2022-10-21T07:26:33.169Z,70.20
2022-10-21T07:29:03.094Z,69.85
2022-10-21T07:31:35.405Z,69.74
2022-10-21T07:34:06.430Z,69.21
2022-10-21T07:36:37.622Z,68.80
2022-10-21T07:39:08.338Z,68.28
2022-10-21T07:41:39.177Z,68.22
2022-10-21T07:44:09.530Z,67.79
2022-10-21T07:46:40.962Z,67.12
2022-10-21T07:49:11.026Z,66.52
2022-10-21T07:51:41.180Z,66.08
2022-10-21T07:54:10.821Z,65.84
2022-10-21T07:56:41.717Z,65.69
2022-10-21T07:59:13.445Z,65.70
2022-10-21T08:01:45.890Z,65.25
2022-10-21T08:04:16.834Z,64.35
2022-10-21T08:06:48.018Z,64.05
2022-10-21T08:09:18.219Z,64.21
2022-10-21T08:11:48.974Z,63.69
2022-10-21T08:14:19.404Z,62.52
2022-10-21T08:16:54.024Z,62.51
2022-10-21T08:19:29.379Z,62.61
2022-10-21T08:22:00.878Z,62.60
2022-10-21T08:24:30.546Z,62.27
2022-10-21T08:27:00.179Z,62.16
2022-10-21T08:29:29.738Z,61.86
2022-10-21T08:32:00.650Z,61.59
2022-10-21T08:34:30.194Z,61.61
2022-10-21T08:37:19.169Z,61.50
2022-10-21T08:39:50.892Z,61.13
2022-10-21T08:42:20.624Z,60.50
2022-10-21T08:44:55.162Z,60.14
2022-10-21T08:47:32.055Z,57.99
2022-10-21T08:50:03.058Z,56.93
2022-10-21T08:52:39.130Z,57.24
2022-10-21T08:55:15.804Z,56.95
2022-10-21T08:57:45.622Z,56.72
2022-10-21T09:00:16.778Z,56.71
2022-10-21T09:03:00.892Z,56.29
2022-10-21T09:05:37.610Z,56.29
2022-10-21T09:08:13.766Z,56.22
2022-10-21T09:10:50.491Z,55.24
2022-10-21T09:13:25.119Z,55.93
2022-10-21T09:16:02.094Z,55.42
2022-10-21T09:18:40.265Z,56.03
2022-10-21T09:21:14.824Z,55.53
2022-10-21T09:23:51.010Z,55.16
2022-10-21T09:26:31.598Z,54.05
2022-10-21T09:29:02.490Z,53.44
2022-10-21T09:31:32.126Z,53.11
2022-10-21T09:34:04.849Z,54.01
2022-10-21T09:36:36.351Z,52.65
2022-10-21T09:39:08.558Z,52.67
2022-10-21T09:41:40.876Z,53.35
2022-10-21T09:44:16.461Z,53.36
2022-10-21T09:46:46.210Z,53.47
2022-10-21T09:49:47.947Z,53.67
2022-10-21T09:52:13.597Z,53.79
2022-10-21T09:54:44.134Z,52.89
2022-10-21T09:57:14.966Z,52.66
2022-10-21T09:59:54.308Z,52.08
2022-10-21T10:02:26.694Z,50.61
2022-10-21T10:04:58.186Z,51.18
2022-10-21T10:07:29.155Z,51.59
2022-10-21T10:09:59.261Z,50.79
2022-10-21T10:12:30.542Z,50.57
2022-10-21T10:15:21.330Z,50.69
2022-10-21T10:17:51.133Z,51.64
2022-10-21T10:20:22.209Z,51.23
2022-10-21T10:23:16.676Z,50.55
2022-10-21T10:25:50.647Z,50.16
2022-10-21T10:28:22.090Z,50.06
2022-10-21T10:30:53.628Z,50.59
2022-10-21T10:33:25.006Z,50.75
2022-10-21T10:35:57.514Z,49.23
2022-10-21T10:38:29.779Z,49.97
2022-10-21T10:41:05.334Z,49.98
2022-10-21T10:43:35.908Z,50.40
2022-10-21T10:46:06.693Z,50.64
2022-10-21T10:48:38.791Z,48.91
2022-10-21T10:51:24.265Z,49.21
2022-10-21T10:54:01.410Z,49.47
2022-10-21T10:56:35.542Z,48.76
2022-10-21T10:59:12.420Z,48.04
2022-10-21T11:01:47.579Z,48.04
2022-10-21T11:04:18.691Z,48.16
2022-10-21T11:06:53.639Z,49.03
2022-10-21T11:09:27.269Z,47.88
2022-10-21T11:11:58.452Z,48.49
2022-10-21T11:14:28.910Z,49.37
2022-10-21T11:17:05.429Z,48.42
2022-10-21T11:19:41.160Z,49.75
2022-10-21T11:22:16.435Z,47.80
2022-10-21T11:24:56.404Z,48.24
2022-10-21T11:27:30.236Z,48.59
2022-10-21T11:30:03.861Z,49.11
2022-10-21T11:32:41.801Z,48.32
2022-10-21T11:35:18.835Z,48.71
2022-10-21T11:37:58.517Z,49.01
2022-10-21T11:40:33.831Z,48.62
2022-10-21T11:43:10.204Z,49.00
2022-10-21T11:45:46.249Z,48.18
2022-10-21T11:48:21.490Z,47.61
2022-10-21T11:51:00.328Z,47.90
2022-10-21T11:53:40.039Z,47.50
2022-10-21T11:56:16.463Z,47.49
2022-10-21T11:58:50.775Z,48.47
2022-10-21T12:01:25.245Z,49.36
2022-10-21T12:04:04.331Z,48.51
2022-10-21T12:06:38.477Z,48.85
2022-10-21T12:09:13.782Z,48.91
2022-10-21T12:11:47.361Z,48.13
2022-10-21T12:14:27.624Z,47.50
2022-10-21T12:17:02.830Z,47.59
2022-10-21T12:19:33.042Z,48.11
2022-10-21T12:22:03.263Z,48.90
2022-10-21T12:24:43.498Z,49.48
2022-10-21T12:27:18.002Z,49.54
2022-10-21T12:29:57.361Z,48.94
2022-10-21T12:32:30.634Z,49.91
2022-10-21T12:35:02.042Z,49.72
2022-10-21T12:38:05.781Z,48.95
2022-10-21T12:40:38.591Z,48.40
2022-10-21T12:43:17.634Z,48.21
2022-10-21T12:45:47.680Z,47.97
2022-10-21T12:48:29.210Z,47.16
2022-10-21T12:51:00.515Z,48.19
2022-10-21T12:53:36.610Z,48.05
2022-10-21T12:56:08.309Z,47.39
2022-10-21T12:58:39.644Z,48.11
2022-10-21T13:01:29.293Z,48.55
2022-10-21T13:03:59.003Z,48.48
2022-10-21T13:06:47.286Z,48.52
2022-10-21T13:09:40.228Z,48.93
2022-10-21T13:12:26.907Z,48.16
2022-10-21T13:14:58.235Z,48.31
2022-10-21T13:17:32.617Z,47.92
2022-10-21T13:20:20.734Z,48.32
2022-10-21T13:22:50.702Z,47.93
2022-10-21T13:25:22.631Z,48.61
2022-10-21T13:27:55.286Z,47.54
2022-10-21T13:30:28.462Z,48.70
2022-10-21T13:33:02.067Z,48.25
2022-10-21T13:35:34.178Z,47.90
2022-10-21T13:38:05.253Z,47.82
2022-10-21T13:40:39.666Z,47.55
2022-10-21T13:43:14.889Z,47.29
2022-10-21T13:45:47.970Z,48.09
2022-10-21T13:48:18.459Z,47.81
2022-10-21T13:50:49.078Z,48.27
2022-10-21T13:53:26.077Z,47.47
2022-10-21T13:55:56.835Z,47.05
2022-10-21T13:58:28.533Z,47.32
2022-10-21T14:00:59.111Z,47.69
2022-10-21T14:03:29.159Z,47.30
2022-10-21T14:06:00.224Z,47.04
2022-10-21T14:08:33.171Z,47.68
2022-10-21T14:11:05.889Z,47.25
2022-10-21T14:13:37.899Z,47.19
2022-10-21T14:16:09.458Z,47.37
2022-10-21T14:18:41.404Z,48.24
2022-10-21T14:21:15.075Z,48.07
2022-10-21T14:23:46.661Z,48.72
2022-10-21T14:26:16.447Z,48.61
2022-10-21T14:28:48.527Z,47.97
2022-10-21T14:31:19.113Z,47.97
2022-10-21T14:33:49.804Z,47.80
2022-10-21T14:36:20.616Z,48.01
2022-10-21T14:38:54.728Z,47.69
2022-10-21T14:41:26.310Z,47.59
2022-10-21T14:43:59.775Z,47.59
2022-10-21T14:46:29.651Z,47.86
2022-10-21T14:49:02.557Z,48.60
2022-10-21T14:51:36.236Z,47.97
2022-10-21T14:54:07.346Z,47.93
2022-10-21T14:56:38.547Z,47.61
2022-10-21T14:59:17.676Z,47.56
2022-10-21T15:01:47.491Z,47.59
2022-10-21T15:04:31.873Z,47.93
2022-10-21T15:07:02.039Z,47.72
2022-10-21T15:09:31.542Z,47.93
2022-10-21T15:12:16.918Z,48.18
2022-10-21T15:14:48.276Z,49.06
2022-10-21T15:17:18.334Z,49.37
2022-10-21T15:19:48.668Z,50.08
2022-10-21T15:22:29.386Z,50.04
2022-10-21T15:25:01.741Z,50.24
2022-10-21T15:27:36.988Z,49.92
2022-10-21T15:30:16.167Z,49.89
2022-10-21T15:32:45.754Z,49.83
2022-10-21T15:35:16.279Z,50.07
2022-10-21T15:37:48.793Z,50.44
2022-10-21T15:40:19.047Z,50.12
2022-10-21T15:42:48.874Z,51.01
2022-10-21T15:45:22.098Z,50.93
2022-10-21T15:47:53.222Z,51.24
2022-10-21T15:50:23.796Z,50.99
2022-10-21T15:52:53.669Z,51.00
2022-10-21T15:55:23.431Z,51.47
2022-10-21T15:57:52.957Z,50.95
2022-10-21T16:00:24.213Z,51.47
2022-10-21T16:02:53.731Z,51.46
2022-10-21T16:05:23.427Z,51.65
2022-10-21T16:07:52.906Z,51.82
2022-10-21T16:10:24.933Z,51.68
2022-10-21T16:12:55.337Z,52.17
2022-10-21T16:15:26.914Z,52.80
2022-10-21T16:17:57.604Z,52.65
2022-10-21T16:20:27.983Z,52.80
2022-10-21T16:23:00.547Z,52.87
2022-10-21T16:25:33.389Z,53.04
2022-10-21T16:28:02.851Z,53.63
2022-10-21T16:30:35.465Z,53.63
2022-10-21T16:33:05.139Z,53.79
2022-10-21T16:35:34.644Z,54.05
2022-10-21T16:38:04.128Z,54.05
2022-10-21T16:40:35.170Z,54.23
2022-10-21T16:43:05.528Z,54.86
2022-10-21T16:45:36.721Z,55.19
2022-10-21T16:48:06.469Z,55.13
2022-10-21T16:50:39.404Z,55.18
2022-10-21T16:53:09.406Z,55.27
2022-10-21T16:55:39.088Z,55.80
2022-10-21T16:58:08.853Z,55.59
2022-10-21T17:00:41.305Z,55.61
2022-10-21T17:03:11.980Z,55.80
2022-10-21T17:05:41.834Z,55.86
2022-10-21T17:08:11.434Z,56.27
2022-10-21T17:10:41.209Z,55.82
2022-10-21T17:13:12.199Z,56.15
2022-10-21T17:15:43.760Z,55.27
2022-10-21T17:18:15.645Z,55.80
2022-10-21T17:20:45.725Z,55.63
2022-10-21T17:23:15.385Z,55.68
2022-10-21T17:25:45.077Z,55.53
2022-10-21T17:28:14.601Z,55.67
2022-10-21T17:30:45.581Z,55.49
2022-10-21T17:33:15.586Z,55.45
2022-10-21T17:35:45.455Z,55.35
2022-10-21T17:38:15.098Z,55.23
2022-10-21T17:40:44.783Z,55.43
2022-10-21T17:43:14.301Z,55.36
2022-10-21T17:45:45.222Z,55.61
2022-10-21T17:48:14.710Z,55.90
2022-10-21T17:50:44.251Z,55.94
2022-10-21T17:53:13.846Z,55.98
2022-10-21T17:55:43.567Z,56.07
2022-10-21T17:58:13.060Z,56.22
2022-10-21T18:00:44.641Z,56.27
2022-10-21T18:03:18.159Z,56.57
2022-10-21T18:05:48.480Z,55.99
2022-10-21T18:08:17.973Z,56.36
2022-10-21T18:10:52.299Z,56.25
2022-10-21T18:13:22.578Z,56.84
2022-10-21T18:15:52.947Z,56.77
2022-10-21T18:18:25.866Z,56.93
2022-10-21T18:20:55.463Z,57.07
2022-10-21T18:23:24.965Z,57.95
2022-10-21T18:25:54.494Z,57.97
2022-10-21T18:28:24.149Z,57.91
2022-10-21T18:30:53.735Z,57.55
2022-10-21T18:33:24.659Z,57.56
2022-10-21T18:35:54.651Z,57.54
2022-10-21T18:38:24.315Z,56.56
2022-10-21T18:41:01.861Z,56.22
2022-10-21T18:43:38.292Z,55.70
2022-10-21T18:46:07.954Z,55.46
2022-10-21T18:48:38.980Z,55.11
2022-10-21T18:51:09.288Z,55.88
2022-10-21T18:53:39.866Z,55.76
2022-10-21T18:56:10.203Z,55.48
2022-10-21T18:58:40.582Z,55.76
2022-10-21T19:01:10.593Z,55.86
2022-10-21T19:03:41.872Z,56.50
2022-10-21T19:06:15.620Z,56.57
2022-10-21T19:08:45.535Z,56.42
2022-10-21T19:11:15.218Z,56.64
2022-10-21T19:13:45.313Z,56.35
2022-10-21T19:16:15.698Z,56.85
2022-10-21T19:18:46.955Z,56.92
2022-10-21T19:21:18.225Z,57.37
2022-10-21T19:23:48.423Z,57.57
2022-10-21T19:26:19.944Z,57.70
2022-10-21T19:28:51.992Z,57.72
2022-10-21T19:31:22.417Z,57.42
2022-10-21T19:33:55.079Z,57.94
2022-10-21T19:36:24.607Z,57.92
2022-10-21T19:38:55.424Z,58.04
2022-10-21T19:41:25.067Z,58.33
2022-10-21T19:43:58.367Z,58.40
2022-10-21T19:46:29.868Z,58.03
2022-10-21T19:49:01.313Z,58.53
2022-10-21T19:51:30.810Z,57.95
2022-10-21T19:54:00.659Z,57.75
2022-10-21T19:56:33.385Z,57.78
2022-10-21T19:59:04.642Z,58.50
2022-10-21T20:01:34.902Z,58.21
2022-10-21T20:04:06.437Z,57.61
2022-10-21T20:06:36.731Z,58.41
2022-10-21T20:09:09.736Z,58.14
2022-10-21T20:11:40.701Z,58.41
2022-10-21T20:14:12.329Z,59.83
2022-10-21T20:16:43.249Z,59.68
2022-10-21T20:19:14.823Z,60.36
2022-10-21T20:21:44.594Z,60.50
2022-10-21T20:24:15.282Z,59.99
2022-10-21T20:26:45.828Z,59.85
2022-10-21T20:29:16.081Z,58.91
2022-10-21T20:31:45.651Z,59.02
2022-10-21T20:34:16.667Z,59.60
2022-10-21T20:36:46.219Z,59.27
2022-10-21T20:39:15.763Z,59.08
2022-10-21T20:41:45.453Z,59.76
2022-10-21T20:44:16.983Z,60.03
2022-10-21T20:46:47.662Z,59.56
2022-10-21T20:49:18.502Z,59.57
2022-10-21T20:51:48.020Z,59.32
2022-10-21T20:54:18.639Z,60.38
2022-10-21T20:56:48.214Z,60.91
2022-10-21T20:59:18.071Z,60.78
2022-10-21T21:01:48.304Z,60.01
2022-10-21T21:04:20.854Z,60.60
2022-10-21T21:06:50.897Z,60.21
2022-10-21T21:09:43.574Z,60.01
2022-10-21T21:12:11.862Z,60.25
2022-10-21T21:14:42.096Z,60.10
2022-10-21T21:17:12.194Z,59.54
2022-10-21T21:19:43.257Z,59.44
2022-10-21T21:22:12.798Z,59.92
2022-10-21T21:24:42.674Z,61.00
2022-10-21T21:27:12.278Z,60.04
2022-10-21T21:29:41.942Z,60.97
2022-10-21T21:32:11.422Z,61.26
2022-10-21T21:34:40.966Z,60.93
2022-10-21T21:37:11.809Z,60.59
2022-10-21T21:39:41.321Z,60.68
2022-10-21T21:42:10.850Z,60.47
2022-10-21T21:44:40.343Z,60.86
2022-10-21T21:47:09.873Z,60.42
2022-10-21T21:49:39.436Z,60.14
2022-10-21T21:52:08.925Z,59.39
2022-10-21T21:54:40.076Z,60.37
2022-10-21T21:57:26.776Z,60.05
2022-10-21T21:59:57.447Z,61.06
2022-10-21T22:02:27.011Z,60.70
2022-10-21T22:04:56.699Z,60.39
2022-10-21T22:07:26.495Z,60.32
2022-10-21T22:09:57.516Z,60.22
2022-10-21T22:12:27.479Z,60.70
2022-10-21T22:14:57.698Z,60.94
2022-10-21T22:17:27.287Z,61.02
2022-10-21T22:19:57.088Z,61.02
2022-10-21T22:22:26.624Z,61.49
2022-10-21T22:24:57.521Z,61.84
2022-10-21T22:27:27.275Z,61.66
2022-10-21T22:29:57.238Z,61.85
2022-10-21T22:32:26.712Z,61.93
2022-10-21T22:34:56.266Z,60.92
2022-10-21T22:37:25.820Z,62.46
2022-10-21T22:39:55.491Z,61.35
2022-10-21T22:42:26.327Z,61.02
2022-10-21T22:44:55.770Z,61.75
2022-10-21T22:47:25.204Z,62.87
2022-10-21T22:49:54.710Z,62.14
2022-10-21T22:52:24.226Z,62.17
2022-10-21T22:54:53.732Z,62.90
2022-10-21T22:57:23.571Z,62.47
2022-10-21T22:59:54.456Z,62.22
2022-10-21T23:02:24.352Z,62.02
2022-10-21T23:04:53.903Z,62.56
2022-10-21T23:07:23.563Z,63.00
2022-10-21T23:09:53.173Z,63.93
2022-10-21T23:12:23.477Z,63.30
2022-10-21T23:14:54.770Z,63.23
2022-10-21T23:17:25.665Z,63.43
2022-10-21T23:19:55.303Z,63.44
2022-10-21T23:22:25.315Z,64.22
2022-10-21T23:24:54.811Z,64.49
2022-10-21T23:27:24.338Z,64.06
2022-10-21T23:29:55.247Z,63.11
2022-10-21T23:32:24.809Z,62.84
2022-10-21T23:34:54.323Z,63.43
2022-10-21T23:37:24.225Z,63.65
2022-10-21T23:39:53.684Z,63.53
2022-10-21T23:42:23.159Z,63.48
2022-10-21T23:44:52.719Z,63.38
2022-10-21T23:47:24.210Z,63.35
2022-10-21T23:49:53.686Z,63.97
2022-10-21T23:52:23.197Z,63.36
2022-10-21T23:54:52.752Z,64.01
2022-10-21T23:57:22.219Z,63.38
2022-10-21T23:59:51.744Z,64.08
